createdAt,value
2018-06-25T00:01:12.716Z,4.60
2018-06-25T00:03:40.825Z,4.53
2018-06-25T00:06:08.989Z,4.20
2018-06-25T00:08:37.125Z,4.30
2018-06-25T00:11:05.269Z,3.70
2018-06-25T00:13:33.482Z,3.83
2018-06-25T00:16:01.634Z,3.90
2018-06-25T00:18:29.773Z,3.77
2018-06-25T00:20:57.977Z,3.80
2018-06-25T00:23:26.098Z,3.27
2018-06-25T00:25:54.230Z,4.10
2018-06-25T00:28:22.342Z,3.90
2018-06-25T00:30:50.475Z,3.70
2018-06-25T00:33:18.589Z,3.50
2018-06-25T00:35:46.781Z,4.00
2018-06-25T00:38:14.905Z,4.00
2018-06-25T00:40:43.017Z,3.90
2018-06-25T00:43:11.151Z,3.40
2018-06-25T00:45:39.269Z,3.40
2018-06-25T00:48:07.377Z,3.30
2018-06-25T00:50:35.502Z,3.63
2018-06-25T00:53:03.631Z,2.87
2018-06-25T00:55:31.753Z,2.63
2018-06-25T00:57:59.865Z,2.43
2018-06-25T01:00:27.985Z,2.70
2018-06-25T01:02:56.113Z,2.40
2018-06-25T01:05:24.230Z,2.23
2018-06-25T01:07:52.361Z,2.23
2018-06-25T01:10:20.487Z,2.40
2018-06-25T01:12:48.619Z,2.73
2018-06-25T01:15:16.745Z,2.63
2018-06-25T01:17:44.877Z,2.07
2018-06-25T01:20:12.989Z,2.13
2018-06-25T01:22:41.129Z,2.70
2018-06-25T01:25:09.245Z,2.30
2018-06-25T01:27:37.367Z,2.87
2018-06-25T01:30:05.515Z,2.13
2018-06-25T01:32:33.649Z,2.30
2018-06-25T01:35:01.782Z,2.60
2018-06-25T01:37:29.906Z,2.60
2018-06-25T01:39:58.026Z,2.60
2018-06-25T01:42:26.197Z,2.73
2018-06-25T01:44:54.330Z,2.63
2018-06-25T01:47:22.449Z,2.10
2018-06-25T01:49:50.570Z,2.50
2018-06-25T01:52:18.691Z,2.50
2018-06-25T01:54:46.801Z,2.17
2018-06-25T01:57:14.933Z,2.10
2018-06-25T01:59:43.054Z,1.90
2018-06-25T02:02:11.178Z,2.10
2018-06-25T02:04:39.302Z,2.17
2018-06-25T02:07:07.435Z,2.60
2018-06-25T02:09:35.549Z,2.20
2018-06-25T02:12:03.670Z,2.33
2018-06-25T02:14:31.773Z,2.63
2018-06-25T02:16:59.914Z,2.60
2018-06-25T02:19:28.035Z,2.70
2018-06-25T02:21:56.147Z,2.20
2018-06-25T02:24:24.276Z,2.60
2018-06-25T02:26:52.412Z,1.70
2018-06-25T02:29:20.520Z,1.90
2018-06-25T02:31:48.646Z,1.53
2018-06-25T02:34:16.745Z,1.77
2018-06-25T02:36:44.837Z,1.40
2018-06-25T02:39:12.965Z,1.20
2018-06-25T02:41:41.103Z,1.40
2018-06-25T02:44:09.225Z,1.07
2018-06-25T02:46:37.725Z,1.10
2018-06-25T02:49:05.861Z,1.30
2018-06-25T02:51:34.115Z,1.57
2018-06-25T02:54:02.271Z,1.70
2018-06-25T02:56:30.384Z,1.13
2018-06-25T02:58:58.490Z,1.40
2018-06-25T03:01:26.612Z,1.20
2018-06-25T03:03:54.737Z,1.47
2018-06-25T03:06:22.870Z,1.07
2018-06-25T03:08:50.999Z,1.50
2018-06-25T03:11:19.118Z,1.23
2018-06-25T03:13:47.242Z,1.40
2018-06-25T03:16:15.381Z,1.50
2018-06-25T03:18:43.554Z,1.27
2018-06-25T03:21:11.656Z,1.40
2018-06-25T03:23:39.789Z,1.37
2018-06-25T03:26:07.910Z,1.30
2018-06-25T03:28:36.039Z,1.40
2018-06-25T03:31:04.169Z,1.30
2018-06-25T03:33:32.288Z,1.20
2018-06-25T03:36:00.417Z,1.40
2018-06-25T03:38:28.558Z,2.00
2018-06-25T03:40:56.696Z,1.33
2018-06-25T03:43:24.856Z,1.30
2018-06-25T03:45:52.932Z,1.67
2018-06-25T03:48:21.041Z,1.73
2018-06-25T03:50:49.157Z,1.10
2018-06-25T03:53:17.285Z,1.30
2018-06-25T03:55:45.408Z,1.80
2018-06-25T03:58:13.534Z,1.23
2018-06-25T04:00:41.666Z,1.37
2018-06-25T04:03:09.798Z,1.37
2018-06-25T04:05:37.938Z,1.30
2018-06-25T04:08:06.070Z,1.27
2018-06-25T04:10:34.218Z,1.13
2018-06-25T04:13:02.346Z,1.27
2018-06-25T04:15:30.454Z,1.40
2018-06-25T04:17:58.590Z,1.40
2018-06-25T04:20:26.714Z,1.40
2018-06-25T04:22:54.819Z,1.43
2018-06-25T04:25:22.949Z,1.37
2018-06-25T04:27:51.225Z,2.10
2018-06-25T04:30:19.377Z,1.20
2018-06-25T04:32:47.494Z,1.40
2018-06-25T04:35:15.621Z,1.30
2018-06-25T04:37:43.757Z,1.80
2018-06-25T04:40:11.886Z,1.43
2018-06-25T04:42:40.025Z,1.63
2018-06-25T04:45:08.154Z,1.63
2018-06-25T04:47:36.310Z,1.47
2018-06-25T04:50:04.461Z,1.70
2018-06-25T04:52:32.588Z,1.83
2018-06-25T04:55:00.689Z,1.57
2018-06-25T04:57:28.811Z,1.40
2018-06-25T04:59:56.922Z,1.50
2018-06-25T05:02:26.068Z,1.50
2018-06-25T05:04:54.191Z,1.40
2018-06-25T05:07:22.311Z,1.77
2018-06-25T05:09:50.422Z,1.90
2018-06-25T05:12:18.554Z,1.53
2018-06-25T05:14:46.685Z,1.37
2018-06-25T05:17:14.815Z,1.43
2018-06-25T05:19:42.911Z,2.17
2018-06-25T05:22:11.064Z,1.60
2018-06-25T05:24:39.199Z,1.37
2018-06-25T05:27:07.327Z,1.60
2018-06-25T05:29:35.425Z,1.10
2018-06-25T05:32:03.549Z,1.23
2018-06-25T05:34:31.677Z,1.27
2018-06-25T05:36:59.820Z,1.20
2018-06-25T05:39:27.953Z,1.50
2018-06-25T05:41:56.087Z,1.50
2018-06-25T05:44:24.218Z,1.60
2018-06-25T05:46:52.358Z,1.40
2018-06-25T05:49:20.541Z,1.40
2018-06-25T05:51:48.684Z,1.40
2018-06-25T05:54:16.821Z,1.30
2018-06-25T05:56:44.961Z,1.23
2018-06-25T05:59:13.078Z,1.50
2018-06-25T06:01:41.191Z,1.57
2018-06-25T06:04:09.321Z,2.03
2018-06-25T06:06:37.490Z,1.87
2018-06-25T06:09:07.743Z,1.40
2018-06-25T06:11:35.926Z,1.40
2018-06-25T06:14:04.084Z,1.20
2018-06-25T06:16:32.193Z,1.10
2018-06-25T06:19:00.313Z,1.40
2018-06-25T06:21:28.428Z,1.10
2018-06-25T06:23:56.581Z,1.67
2018-06-25T06:26:24.739Z,1.00
2018-06-25T06:28:52.821Z,1.07
2018-06-25T06:31:20.954Z,1.60
2018-06-25T06:33:49.070Z,1.50
2018-06-25T06:36:17.195Z,1.17
2018-06-25T06:38:45.314Z,1.30
2018-06-25T06:41:13.417Z,1.30
2018-06-25T06:43:41.348Z,1.80
2018-06-25T06:46:09.483Z,1.07
2018-06-25T06:48:37.601Z,1.33
2018-06-25T06:51:05.737Z,1.00
2018-06-25T06:53:33.863Z,1.33
2018-06-25T06:56:01.986Z,1.50
2018-06-25T06:58:30.109Z,1.30
2018-06-25T07:00:58.236Z,1.37
2018-06-25T07:03:26.368Z,1.43
2018-06-25T07:05:54.489Z,1.23
2018-06-25T07:08:22.634Z,1.33
2018-06-25T07:10:50.745Z,1.70
2018-06-25T07:13:18.889Z,1.10
2018-06-25T07:15:47.009Z,1.50
2018-06-25T07:18:15.156Z,1.27
2018-06-25T07:20:43.381Z,1.23
2018-06-25T07:23:11.416Z,1.37
2018-06-25T07:25:39.552Z,1.07
2018-06-25T07:28:07.762Z,1.50
2018-06-25T07:30:36.022Z,1.10
2018-06-25T07:33:04.173Z,1.20
2018-06-25T07:35:32.402Z,1.07
2018-06-25T07:38:00.533Z,1.43
2018-06-25T07:40:28.678Z,1.30
2018-06-25T07:42:56.802Z,1.30
2018-06-25T07:45:24.957Z,1.60
2018-06-25T07:47:53.087Z,1.47
2018-06-25T07:50:21.214Z,1.60
2018-06-25T07:52:49.378Z,1.23
2018-06-25T07:55:17.474Z,1.17
2018-06-25T07:57:45.597Z,1.00
2018-06-25T08:00:13.718Z,1.10
2018-06-25T08:02:41.849Z,1.60
2018-06-25T08:05:10.286Z,1.33
2018-06-25T08:07:38.415Z,1.47
2018-06-25T08:10:06.630Z,1.63
2018-06-25T08:12:34.738Z,1.60
2018-06-25T08:15:02.857Z,1.30
2018-06-25T08:17:30.982Z,1.17
2018-06-25T08:19:59.127Z,1.30
2018-06-25T08:22:27.249Z,1.40
2018-06-25T08:24:55.381Z,1.53
2018-06-25T08:27:23.540Z,1.53
2018-06-25T08:29:51.786Z,1.10
2018-06-25T08:32:19.833Z,1.20
2018-06-25T08:34:47.937Z,1.23
2018-06-25T08:37:16.134Z,1.20
2018-06-25T08:39:44.266Z,1.20
2018-06-25T08:42:12.410Z,1.10
2018-06-25T08:44:40.539Z,1.10
2018-06-25T08:47:08.653Z,1.03
2018-06-25T08:49:36.761Z,1.17
2018-06-25T08:52:04.920Z,1.30
2018-06-25T08:54:33.342Z,1.40
2018-06-25T08:57:01.568Z,1.50
2018-06-25T08:59:29.846Z,1.20
2018-06-25T09:01:57.995Z,1.40
2018-06-25T09:04:26.208Z,1.67
2018-06-25T09:06:54.390Z,1.20
2018-06-25T09:09:22.531Z,1.03
2018-06-25T09:11:50.679Z,0.97
2018-06-25T09:14:18.793Z,0.73
2018-06-25T09:16:46.936Z,1.00
2018-06-25T09:19:15.054Z,1.10
2018-06-25T09:21:43.186Z,1.10
2018-06-25T09:24:12.116Z,1.00
2018-06-25T09:26:41.313Z,1.00
2018-06-25T09:29:10.507Z,1.27
2018-06-25T09:31:38.664Z,1.00
2018-06-25T09:34:12.306Z,1.07
2018-06-25T09:36:40.999Z,1.13
2018-06-25T09:39:10.793Z,1.20
2018-06-25T09:41:39.151Z,2.07
2018-06-25T09:44:07.540Z,1.30
2018-06-25T09:46:35.818Z,1.00
2018-06-25T09:49:03.970Z,0.90
2018-06-25T09:51:32.193Z,1.13
2018-06-25T09:54:00.315Z,1.00
2018-06-25T09:56:28.456Z,1.20
2018-06-25T09:58:56.652Z,1.23
2018-06-25T10:01:24.790Z,1.17
2018-06-25T10:03:52.922Z,0.90
2018-06-25T10:06:21.070Z,1.00
2018-06-25T10:08:49.201Z,1.20
2018-06-25T10:11:17.317Z,0.80
2018-06-25T10:13:45.502Z,0.90
2018-06-25T10:16:13.622Z,0.90
2018-06-25T10:18:41.766Z,1.20
2018-06-25T10:21:09.887Z,1.20
2018-06-25T10:23:38.041Z,0.70
2018-06-25T10:26:06.311Z,1.07
2018-06-25T10:28:34.492Z,0.80
2018-06-25T10:31:02.582Z,0.80
2018-06-25T10:33:30.730Z,0.77
2018-06-25T10:35:58.857Z,1.10
2018-06-25T10:38:27.013Z,1.17
2018-06-25T10:40:55.125Z,1.00
2018-06-25T10:43:23.266Z,1.10
2018-06-25T10:45:51.381Z,1.00
2018-06-25T10:48:19.545Z,1.30
2018-06-25T10:50:47.677Z,0.80
2018-06-25T10:53:15.891Z,0.80
2018-06-25T10:55:44.034Z,0.83
2018-06-25T10:58:12.214Z,0.90
2018-06-25T11:00:40.288Z,0.87
2018-06-25T11:03:08.466Z,0.70
2018-06-25T11:05:36.622Z,0.60
2018-06-25T11:08:04.743Z,0.80
2018-06-25T11:10:32.871Z,0.83
2018-06-25T11:13:01.046Z,0.77
2018-06-25T11:15:29.142Z,0.70
2018-06-25T11:17:57.041Z,0.90
2018-06-25T11:20:25.230Z,0.67
2018-06-25T11:22:53.338Z,0.80
2018-06-25T11:25:21.499Z,0.73
2018-06-25T11:27:49.640Z,0.90
2018-06-25T11:30:17.758Z,1.00
2018-06-25T11:32:45.907Z,0.93
2018-06-25T11:35:14.036Z,0.67
2018-06-25T11:37:42.155Z,0.60
2018-06-25T11:40:10.296Z,0.97
2018-06-25T11:42:38.413Z,0.80
2018-06-25T11:45:06.549Z,0.70
2018-06-25T11:47:34.666Z,0.87
2018-06-25T11:50:02.811Z,0.70
2018-06-25T11:52:30.909Z,1.03
2018-06-25T11:54:59.037Z,1.00
2018-06-25T11:57:27.160Z,0.80
2018-06-25T11:59:55.306Z,0.90
2018-06-25T12:02:23.483Z,0.93
2018-06-25T12:04:51.602Z,0.80
2018-06-25T12:07:19.737Z,0.90
2018-06-25T12:09:47.860Z,0.70
2018-06-25T12:12:15.979Z,0.80
2018-06-25T12:14:44.130Z,0.73
2018-06-25T12:17:12.289Z,1.00
2018-06-25T12:19:40.449Z,0.90
2018-06-25T12:22:09.017Z,0.70
2018-06-25T12:24:37.111Z,0.80
2018-06-25T12:27:05.249Z,0.80
2018-06-25T12:29:33.164Z,0.67
2018-06-25T12:32:01.332Z,1.10
2018-06-25T12:34:29.409Z,0.90
2018-06-25T12:36:57.867Z,0.70
2018-06-25T12:39:25.991Z,0.80
2018-06-25T12:41:54.117Z,0.80
2018-06-25T12:44:22.256Z,0.80
2018-06-25T12:46:50.389Z,0.83
2018-06-25T12:49:18.600Z,1.10
2018-06-25T12:51:46.719Z,0.80
2018-06-25T12:54:14.877Z,1.00
2018-06-25T12:56:43.005Z,0.87
2018-06-25T12:59:11.126Z,1.07
2018-06-25T13:01:39.249Z,0.80
2018-06-25T13:04:07.374Z,1.00
2018-06-25T13:06:35.506Z,1.00
2018-06-25T13:09:04.242Z,0.83
2018-06-25T13:11:32.414Z,0.97
2018-06-25T13:14:00.542Z,1.27
2018-06-25T13:16:28.683Z,1.03
2018-06-25T13:18:56.823Z,0.70
2018-06-25T13:21:24.960Z,0.90
2018-06-25T13:23:53.081Z,0.97
2018-06-25T13:26:21.218Z,0.87
2018-06-25T13:28:49.369Z,0.73
2018-06-25T13:31:17.485Z,0.83
2018-06-25T13:33:45.422Z,1.00
2018-06-25T13:36:13.577Z,0.80
2018-06-25T13:38:41.744Z,1.00
2018-06-25T13:41:09.882Z,1.10
2018-06-25T13:43:38.101Z,1.03
2018-06-25T13:46:06.381Z,1.00
2018-06-25T13:48:34.510Z,1.00
2018-06-25T13:51:02.766Z,1.07
2018-06-25T13:53:30.903Z,0.97
2018-06-25T13:55:59.042Z,1.03
2018-06-25T13:58:27.282Z,0.97
2018-06-25T14:00:55.430Z,0.97
2018-06-25T14:03:23.565Z,0.80
2018-06-25T14:05:51.702Z,1.00
2018-06-25T14:08:19.827Z,0.80
2018-06-25T14:10:47.965Z,0.80
2018-06-25T14:13:16.114Z,1.07
2018-06-25T14:15:44.232Z,0.90
2018-06-25T14:18:12.364Z,0.90
2018-06-25T14:20:40.530Z,0.70
2018-06-25T14:23:08.730Z,0.93
2018-06-25T14:25:42.381Z,1.13
2018-06-25T14:28:15.886Z,0.80
2018-06-25T14:30:49.528Z,1.00
2018-06-25T14:33:21.893Z,1.30
2018-06-25T14:35:50.000Z,1.10
2018-06-25T14:38:18.169Z,1.10
2018-06-25T14:40:46.364Z,0.87
2018-06-25T14:43:14.429Z,1.20
2018-06-25T14:45:42.545Z,0.90
2018-06-25T14:48:10.687Z,1.27
2018-06-25T14:50:38.789Z,1.10
2018-06-25T14:53:06.910Z,1.00
2018-06-25T14:55:35.115Z,1.00
2018-06-25T14:58:03.221Z,1.17
2018-06-25T15:00:31.360Z,0.97
2018-06-25T15:02:59.510Z,0.90
2018-06-25T15:05:27.619Z,0.83
2018-06-25T15:07:55.745Z,0.80
2018-06-25T15:10:23.893Z,0.90
2018-06-25T15:12:52.033Z,1.20
2018-06-25T15:15:20.174Z,1.37
2018-06-25T15:17:48.314Z,1.10
2018-06-25T15:20:16.513Z,1.07
2018-06-25T15:22:44.646Z,1.00
2018-06-25T15:25:12.774Z,0.90
2018-06-25T15:27:41.000Z,0.80
2018-06-25T15:30:09.165Z,1.37
2018-06-25T15:32:37.273Z,1.10
2018-06-25T15:35:05.413Z,1.30
2018-06-25T15:37:33.565Z,1.43
2018-06-25T15:40:01.701Z,1.20
2018-06-25T15:42:29.784Z,1.30
2018-06-25T15:44:57.898Z,1.20
2018-06-25T15:47:26.053Z,1.23
2018-06-25T15:49:54.174Z,1.40
2018-06-25T15:52:22.312Z,1.33
2018-06-25T15:54:50.462Z,1.20
2018-06-25T15:57:19.269Z,1.00
2018-06-25T15:59:47.424Z,1.47
2018-06-25T16:02:15.546Z,1.20
2018-06-25T16:04:43.685Z,1.10
2018-06-25T16:07:11.891Z,1.07
2018-06-25T16:09:40.034Z,1.40
2018-06-25T16:12:07.829Z,0.90
2018-06-25T16:14:35.968Z,0.97
2018-06-25T16:17:04.156Z,0.80
2018-06-25T16:19:32.298Z,0.90
2018-06-25T16:22:00.519Z,0.90
2018-06-25T16:24:28.752Z,0.80
2018-06-25T16:26:56.869Z,0.90
2018-06-25T16:29:25.044Z,0.90
2018-06-25T16:31:53.496Z,0.60
2018-06-25T16:34:26.385Z,1.00
2018-06-25T16:36:55.080Z,0.90
2018-06-25T16:39:23.214Z,0.80
2018-06-25T16:41:51.313Z,0.67
2018-06-25T16:44:19.544Z,0.70
2018-06-25T16:46:48.199Z,0.70
2018-06-25T16:49:16.339Z,0.80
2018-06-25T16:51:44.438Z,0.60
2018-06-25T16:54:12.557Z,0.83
2018-06-25T16:56:40.677Z,1.17
2018-06-25T16:59:08.790Z,0.77
2018-06-25T17:01:36.902Z,0.70
2018-06-25T17:04:05.041Z,0.80
2018-06-25T17:06:33.135Z,0.60
2018-06-25T17:09:01.233Z,0.77
2018-06-25T17:11:29.395Z,0.60
2018-06-25T17:13:57.776Z,0.50
2018-06-25T17:16:26.073Z,0.80
2018-06-25T17:18:54.240Z,0.50
2018-06-25T17:21:22.463Z,0.80
2018-06-25T17:23:52.146Z,0.80
2018-06-25T17:26:22.617Z,0.80
2018-06-25T17:28:51.944Z,0.87
2018-06-25T17:31:20.073Z,0.73
2018-06-25T17:33:48.360Z,1.00
2018-06-25T17:36:16.523Z,0.90
2018-06-25T17:38:44.698Z,0.90
2018-06-25T17:41:12.905Z,0.80
2018-06-25T17:43:41.099Z,1.03
2018-06-25T17:46:09.310Z,0.80
2018-06-25T17:48:37.489Z,0.80
2018-06-25T17:51:06.099Z,0.90
2018-06-25T17:53:34.293Z,1.10
2018-06-25T17:56:02.454Z,0.90
2018-06-25T17:58:30.609Z,0.70
2018-06-25T18:00:58.775Z,0.83
2018-06-25T18:03:26.915Z,0.80
2018-06-25T18:05:55.071Z,1.00
2018-06-25T18:08:23.215Z,0.80
2018-06-25T18:10:51.377Z,0.97
2018-06-25T18:13:19.523Z,1.00
2018-06-25T18:15:47.661Z,0.90
2018-06-25T18:18:15.805Z,0.87
2018-06-25T18:20:44.115Z,1.10
2018-06-25T18:23:12.222Z,0.90
2018-06-25T18:25:40.657Z,1.00
2018-06-25T18:28:08.892Z,1.10
2018-06-25T18:30:37.182Z,1.10
2018-06-25T18:33:05.617Z,1.10
2018-06-25T18:35:33.769Z,0.97
2018-06-25T18:38:02.066Z,0.90
2018-06-25T18:40:30.280Z,1.20
2018-06-25T18:42:58.473Z,1.00
2018-06-25T18:45:27.016Z,1.00
2018-06-25T18:47:55.125Z,1.20
2018-06-25T18:50:23.270Z,1.10
2018-06-25T18:52:51.437Z,0.90
2018-06-25T18:55:19.786Z,1.27
2018-06-25T18:57:47.927Z,0.93
2018-06-25T19:00:16.099Z,1.10
2018-06-25T19:02:44.245Z,1.10
2018-06-25T19:05:12.406Z,1.13
2018-06-25T19:07:40.547Z,1.20
2018-06-25T19:10:08.693Z,1.17
2018-06-25T19:12:36.857Z,1.10
2018-06-25T19:15:05.558Z,1.07
2018-06-25T19:17:33.706Z,1.00
2018-06-25T19:20:01.820Z,1.03
2018-06-25T19:22:29.947Z,1.50
2018-06-25T19:24:58.051Z,1.10
2018-06-25T19:27:27.098Z,1.10
2018-06-25T19:29:55.201Z,1.20
2018-06-25T19:32:23.400Z,0.90
2018-06-25T19:34:51.501Z,1.10
2018-06-25T19:37:19.657Z,4.20
2018-06-25T19:39:47.825Z,1.33
2018-06-25T19:42:15.963Z,1.50
2018-06-25T19:44:44.054Z,1.33
2018-06-25T19:47:12.183Z,1.50
2018-06-25T19:49:40.317Z,1.20
2018-06-25T19:52:08.457Z,1.60
2018-06-25T19:54:36.609Z,1.70
2018-06-25T19:57:04.839Z,1.50
2018-06-25T19:59:32.994Z,1.77
2018-06-25T20:02:01.098Z,1.73
2018-06-25T20:04:29.222Z,1.80
2018-06-25T20:06:57.376Z,1.50
2018-06-25T20:09:25.549Z,1.57
2018-06-25T20:11:53.655Z,2.17
2018-06-25T20:14:21.762Z,1.90
2018-06-25T20:16:49.953Z,1.80
2018-06-25T20:19:18.183Z,1.77
2018-06-25T20:21:46.316Z,1.50
2018-06-25T20:24:14.485Z,1.70
2018-06-25T20:26:42.653Z,2.17
2018-06-25T20:29:10.888Z,1.57
2018-06-25T20:31:38.945Z,1.90
2018-06-25T20:34:07.096Z,1.80
2018-06-25T20:36:35.222Z,1.90
2018-06-25T20:39:03.722Z,1.90
2018-06-25T20:41:31.913Z,2.10
2018-06-25T20:44:00.030Z,2.00
2018-06-25T20:46:28.197Z,2.17
2018-06-25T20:48:56.490Z,2.17
2018-06-25T20:51:24.629Z,2.10
2018-06-25T20:53:52.779Z,1.70
2018-06-25T20:56:20.885Z,1.97
2018-06-25T20:58:49.035Z,2.00
2018-06-25T21:01:17.384Z,1.90
2018-06-25T21:03:45.705Z,1.77
2018-06-25T21:06:13.841Z,1.90
2018-06-25T21:08:41.994Z,2.60
2018-06-25T21:11:10.224Z,1.90
2018-06-25T21:13:38.368Z,1.90
2018-06-25T21:16:06.506Z,1.60
2018-06-25T21:18:34.701Z,1.97
2018-06-25T21:21:02.982Z,1.90
2018-06-25T21:23:33.521Z,1.80
2018-06-25T21:26:01.680Z,1.87
2018-06-25T21:28:29.873Z,2.17
2018-06-25T21:30:58.797Z,1.77
2018-06-25T21:33:26.932Z,2.03
2018-06-25T21:35:55.065Z,2.17
2018-06-25T21:38:23.206Z,1.90
2018-06-25T21:40:51.330Z,2.23
2018-06-25T21:43:19.477Z,1.90
2018-06-25T21:45:47.641Z,2.07
2018-06-25T21:48:15.816Z,1.83
2018-06-25T21:50:43.994Z,1.87
2018-06-25T21:53:12.126Z,1.83
2018-06-25T21:55:40.246Z,1.90
2018-06-25T21:58:08.386Z,2.00
2018-06-25T22:00:50.208Z,1.70
2018-06-25T22:03:18.426Z,1.90
2018-06-25T22:05:49.219Z,2.13
2018-06-25T22:08:17.385Z,1.90
2018-06-25T22:10:45.532Z,1.60
2018-06-25T22:13:13.696Z,1.93
2018-06-25T22:15:41.814Z,1.90
2018-06-25T22:18:10.090Z,2.23
2018-06-25T22:20:38.263Z,1.83
2018-06-25T22:23:06.400Z,1.90
2018-06-25T22:25:34.547Z,1.50
2018-06-25T22:28:02.669Z,1.93
2018-06-25T22:30:30.850Z,1.73
2018-06-25T22:32:58.987Z,2.00
2018-06-25T22:35:27.105Z,2.03
2018-06-25T22:37:55.237Z,2.00
2018-06-25T22:40:23.409Z,1.83
2018-06-25T22:42:51.514Z,1.80
2018-06-25T22:45:19.624Z,2.53
2018-06-25T22:47:47.749Z,2.30
2018-06-25T22:50:15.867Z,2.20
2018-06-25T22:52:43.985Z,1.70
2018-06-25T22:55:12.077Z,2.23
2018-06-25T22:57:40.205Z,2.37
2018-06-25T23:00:08.302Z,1.90
2018-06-25T23:02:36.423Z,2.17
2018-06-25T23:05:04.557Z,2.27
2018-06-25T23:07:32.678Z,2.03
2018-06-25T23:10:00.782Z,2.10
2018-06-25T23:12:28.886Z,2.00
2018-06-25T23:14:56.983Z,1.80
2018-06-25T23:17:25.131Z,2.00
2018-06-25T23:19:53.275Z,2.00
2018-06-25T23:22:21.398Z,2.30
2018-06-25T23:24:49.537Z,2.00
2018-06-25T23:27:17.677Z,2.00
2018-06-25T23:29:45.802Z,1.80
2018-06-25T23:32:13.958Z,2.33
2018-06-25T23:34:42.113Z,2.27
2018-06-25T23:37:10.251Z,1.90
2018-06-25T23:39:38.390Z,1.80
2018-06-25T23:42:06.581Z,2.57
2018-06-25T23:44:34.712Z,2.00
2018-06-25T23:47:02.871Z,2.03
2018-06-25T23:49:31.002Z,2.60
2018-06-25T23:51:59.149Z,2.33
2018-06-25T23:54:27.310Z,2.17
2018-06-25T23:56:55.429Z,2.07
2018-06-25T23:59:23.558Z,2.00
